createdAt,value
2018-12-14T00:00:14.922Z,13.48
2018-12-14T00:05:19.323Z,15.63
2018-12-14T00:10:23.881Z,22.25
2018-12-14T00:15:28.243Z,20.80
2018-12-14T00:20:32.733Z,20.00
2018-12-14T00:25:37.266Z,14.55
2018-12-14T00:30:41.619Z,15.30
2018-12-14T00:35:46.514Z,16.90
2018-12-14T00:40:51.050Z,19.27
2018-12-14T00:51:32.698Z,21.80
2018-12-14T00:56:37.117Z,15.57
2018-12-14T01:07:14.574Z,25.70
2018-12-14T01:12:19.086Z,18.37
2018-12-14T01:17:23.579Z,18.03
2018-12-14T01:22:28.271Z,16.27
2018-12-14T01:27:32.924Z,21.17
2018-12-14T01:32:37.329Z,15.65
2018-12-14T01:37:41.644Z,15.93
2018-12-14T01:42:45.804Z,18.70
2018-12-14T01:47:50.197Z,22.20
2018-12-14T01:58:32.458Z,20.53
2018-12-14T02:03:36.785Z,19.50
2018-12-14T02:08:41.237Z,20.07
2018-12-14T02:13:45.484Z,17.60
2018-12-14T02:18:49.924Z,21.67
2018-12-14T02:23:54.350Z,15.00
2018-12-14T02:28:58.793Z,19.67
2018-12-14T02:39:25.526Z,16.43
2018-12-14T02:44:30.066Z,17.27
2018-12-14T02:49:34.541Z,18.93
2018-12-14T02:54:38.859Z,17.73
2018-12-14T02:59:43.338Z,18.55
2018-12-14T03:04:47.896Z,17.33
2018-12-14T03:09:52.271Z,14.67
2018-12-14T03:14:56.816Z,16.57
2018-12-14T03:20:01.302Z,16.97
2018-12-14T03:25:06.509Z,22.00
2018-12-14T03:30:11.383Z,19.93
2018-12-14T03:35:15.811Z,18.13
2018-12-14T03:40:20.397Z,16.97
2018-12-14T03:45:26.015Z,16.50
2018-12-14T03:50:30.728Z,15.70
2018-12-14T03:55:35.186Z,17.70
2018-12-14T04:00:39.884Z,23.20
2018-12-14T04:05:44.598Z,18.63
2018-12-14T04:10:49.132Z,20.70
2018-12-14T04:15:53.504Z,21.80
2018-12-14T04:20:57.923Z,21.17
2018-12-14T04:26:02.330Z,19.37
2018-12-14T04:31:06.702Z,15.50
2018-12-14T04:36:11.273Z,15.97
2018-12-14T04:41:15.842Z,16.75
2018-12-14T04:46:20.301Z,15.70
2018-12-14T04:51:25.349Z,19.63
2018-12-14T04:56:29.901Z,12.50
2018-12-14T05:01:34.467Z,11.77
2018-12-14T05:06:38.928Z,16.50
2018-12-14T05:11:43.462Z,18.37
2018-12-14T05:16:47.823Z,15.90
2018-12-14T05:21:52.628Z,19.00
2018-12-14T05:26:57.478Z,18.50
2018-12-14T05:32:02.047Z,18.93
2018-12-14T05:37:06.607Z,15.80
2018-12-14T05:42:11.122Z,16.13
2018-12-14T05:47:15.707Z,20.40
2018-12-14T05:52:20.047Z,19.27
2018-12-14T05:57:28.201Z,14.53
2018-12-14T06:02:32.542Z,16.53
2018-12-14T06:07:36.957Z,16.33
2018-12-14T06:12:41.362Z,15.53
2018-12-14T06:17:45.724Z,17.23
2018-12-14T06:22:50.161Z,16.57
2018-12-14T06:27:54.612Z,19.03
2018-12-14T06:32:59.172Z,15.20
2018-12-14T06:38:03.588Z,13.80
2018-12-14T06:43:08.177Z,12.63
2018-12-14T06:48:12.622Z,17.33
2018-12-14T06:53:17.402Z,12.50
2018-12-14T06:58:21.892Z,14.67
2018-12-14T07:03:26.411Z,16.47
2018-12-14T07:08:31.368Z,14.90
2018-12-14T07:13:36.055Z,14.75
2018-12-14T07:18:40.496Z,15.70
2018-12-14T07:23:44.987Z,16.17
2018-12-14T07:28:50.507Z,12.63
2018-12-14T07:33:54.917Z,12.53
2018-12-14T07:38:59.497Z,17.30
2018-12-14T07:44:03.987Z,14.27
2018-12-14T07:49:08.464Z,14.10
2018-12-14T07:54:12.832Z,14.53
2018-12-14T07:59:17.194Z,18.07
2018-12-14T08:04:22.008Z,13.43
2018-12-14T08:09:27.074Z,16.30
2018-12-14T08:14:31.593Z,13.67
2018-12-14T08:19:35.999Z,21.70
2018-12-14T08:24:40.434Z,20.77
2018-12-14T08:29:44.839Z,17.75
2018-12-14T08:34:51.100Z,16.03
2018-12-14T08:39:55.770Z,17.07
2018-12-14T08:45:00.045Z,19.27
2018-12-14T08:50:04.620Z,16.83
2018-12-14T08:55:09.030Z,20.97
2018-12-14T09:00:13.439Z,17.17
2018-12-14T09:05:17.964Z,18.17
2018-12-14T09:10:22.485Z,18.07
2018-12-14T09:15:26.950Z,18.80
2018-12-14T09:20:31.739Z,18.37
2018-12-14T09:25:36.166Z,16.32
2018-12-14T09:30:42.788Z,18.67
2018-12-14T09:35:46.925Z,19.20
2018-12-14T09:40:51.320Z,19.60
2018-12-14T09:45:55.657Z,16.33
2018-12-14T09:51:00.240Z,22.30
2018-12-14T09:56:04.698Z,17.15
2018-12-14T10:01:09.115Z,14.63
2018-12-14T10:06:15.835Z,19.40
2018-12-14T10:11:20.220Z,20.60
2018-12-14T10:16:24.694Z,15.80
2018-12-14T10:21:29.255Z,20.27
2018-12-14T10:26:33.675Z,20.67
2018-12-14T10:31:38.089Z,16.77
2018-12-14T10:36:42.524Z,17.92
2018-12-14T10:41:46.926Z,14.93
2018-12-14T10:46:51.297Z,15.80
2018-12-14T10:51:56.089Z,13.97
2018-12-14T10:57:00.549Z,16.33
2018-12-14T11:02:04.904Z,13.77
2018-12-14T11:07:09.429Z,15.73
2018-12-14T11:12:28.389Z,15.97
2018-12-14T11:17:32.808Z,18.60
2018-12-14T11:22:37.208Z,17.62
2018-12-14T11:27:41.539Z,17.43
2018-12-14T11:32:45.989Z,16.07
2018-12-14T11:37:51.465Z,17.63
2018-12-14T11:42:55.808Z,16.93
2018-12-14T11:48:00.798Z,18.90
2018-12-14T11:53:05.939Z,13.20
2018-12-14T11:58:10.673Z,16.00
2018-12-14T12:03:15.373Z,15.03
2018-12-14T12:08:20.813Z,18.40
2018-12-14T12:13:27.913Z,20.27
2018-12-14T12:18:32.383Z,23.00
2018-12-14T12:23:37.208Z,15.38
2018-12-14T12:28:41.734Z,20.53
2018-12-14T12:33:46.263Z,22.07
2018-12-14T12:39:02.703Z,14.90
2018-12-14T13:03:31.903Z,22.70
2018-12-14T13:08:36.603Z,22.83
2018-12-14T13:13:40.905Z,26.73
2018-12-14T13:18:45.367Z,21.83
2018-12-14T13:23:49.767Z,25.87
2018-12-14T13:28:54.114Z,24.60
2018-12-14T13:33:58.412Z,24.00
2018-12-14T13:39:02.944Z,16.03
2018-12-14T13:44:07.410Z,31.12
2018-12-14T13:49:11.922Z,23.90
2018-12-14T13:54:16.246Z,24.13
2018-12-14T13:59:20.447Z,19.27
2018-12-14T14:04:24.802Z,19.07
2018-12-14T14:09:29.320Z,23.33
2018-12-14T14:14:33.822Z,24.90
2018-12-14T14:19:38.763Z,18.17
2018-12-14T14:24:43.257Z,22.50
2018-12-14T14:29:47.794Z,21.03
2018-12-14T14:34:52.273Z,24.50
2018-12-14T14:39:56.732Z,19.23
2018-12-14T14:45:01.293Z,19.13
2018-12-14T14:50:06.740Z,21.70
2018-12-14T14:55:11.328Z,21.20
2018-12-14T15:00:15.828Z,20.37
2018-12-14T15:05:20.657Z,23.43
2018-12-14T15:10:25.243Z,25.07
2018-12-14T15:15:29.763Z,24.43
2018-12-14T15:20:34.222Z,30.95
2018-12-14T15:25:38.633Z,32.08
2018-12-14T15:30:42.857Z,35.50
2018-12-14T15:35:47.433Z,29.53
2018-12-14T15:40:51.933Z,34.57
2018-12-14T15:45:56.278Z,35.63
2018-12-14T15:51:00.828Z,42.37
2018-12-14T15:56:05.962Z,35.67
2018-12-14T16:01:10.408Z,40.97
2018-12-14T16:06:14.792Z,43.07
2018-12-14T16:11:19.324Z,36.97
2018-12-14T16:16:23.863Z,34.47
2018-12-14T16:21:28.404Z,45.90
2018-12-14T16:26:32.856Z,39.07
2018-12-14T16:31:37.378Z,46.37
2018-12-14T16:36:41.985Z,45.03
2018-12-14T16:41:46.554Z,48.47
2018-12-14T16:46:51.164Z,49.87
2018-12-14T16:51:55.762Z,50.63
2018-12-14T16:57:00.409Z,59.07
2018-12-14T17:02:05.041Z,55.63
2018-12-14T17:07:09.647Z,52.93
2018-12-14T17:12:14.268Z,59.70
2018-12-14T17:17:18.785Z,65.77
2018-12-14T17:22:23.243Z,60.73
2018-12-14T17:27:27.725Z,71.93
2018-12-14T17:32:32.204Z,65.70
2018-12-14T17:37:36.789Z,73.95
2018-12-14T17:42:41.269Z,75.17
2018-12-14T17:47:45.645Z,83.63
2018-12-14T17:52:50.079Z,44.17
2018-12-14T17:57:54.555Z,50.17
2018-12-14T18:02:59.179Z,78.53
2018-12-14T18:08:03.754Z,93.83
2018-12-14T18:18:27.314Z,69.67
2018-12-14T18:23:31.869Z,68.23
2018-12-14T18:28:36.245Z,90.83
2018-12-14T18:33:40.605Z,67.50
2018-12-14T18:38:45.014Z,81.80
2018-12-14T18:43:49.564Z,77.20
2018-12-14T18:48:53.909Z,85.97
2018-12-14T18:54:00.276Z,78.83
2018-12-14T18:59:05.012Z,66.77
2018-12-14T19:04:09.569Z,87.03
2018-12-14T19:09:14.019Z,52.93
2018-12-14T19:14:18.500Z,88.60
2018-12-14T19:19:23.029Z,85.75
2018-12-14T19:24:27.545Z,89.53
2018-12-14T19:29:32.064Z,67.22
2018-12-14T19:34:36.569Z,82.90
2018-12-14T19:39:41.031Z,81.42
2018-12-14T19:44:45.339Z,88.13
2018-12-14T19:49:50.099Z,68.00
2018-12-14T19:54:54.730Z,73.70
2018-12-14T19:59:59.250Z,68.30
2018-12-14T20:05:03.744Z,90.47
2018-12-14T20:10:09.029Z,70.70
2018-12-14T20:15:13.499Z,75.40
2018-12-14T20:20:18.030Z,62.43
2018-12-14T20:25:22.493Z,59.77
2018-12-14T20:36:04.942Z,58.73
2018-12-14T20:41:09.467Z,54.10
2018-12-14T20:46:19.263Z,38.83
2018-12-14T20:51:20.395Z,52.80
2018-12-14T20:56:24.920Z,32.40
2018-12-14T21:01:29.231Z,32.47
2018-12-14T21:06:33.685Z,23.47
2018-12-14T21:11:39.004Z,29.70
2018-12-14T21:16:43.786Z,35.28
2018-12-14T21:21:48.351Z,33.70
2018-12-14T21:26:52.745Z,52.60
2018-12-14T21:31:57.397Z,39.50
2018-12-14T21:37:01.942Z,32.60
2018-12-14T21:42:06.441Z,17.97
2018-12-14T21:47:11.014Z,33.07
2018-12-14T21:52:15.476Z,31.57
2018-12-14T21:57:19.940Z,42.83
2018-12-14T22:02:24.465Z,28.43
2018-12-14T22:07:28.906Z,24.07
2018-12-14T22:12:33.430Z,26.87
2018-12-14T22:17:38.031Z,16.77
2018-12-14T22:22:42.563Z,23.40
2018-12-14T22:27:47.086Z,18.13
2018-12-14T22:32:51.595Z,24.30
2018-12-14T22:37:56.163Z,23.37
2018-12-14T22:43:00.655Z,12.73
2018-12-14T22:48:05.161Z,19.40
2018-12-14T22:53:09.512Z,10.13
2018-12-14T22:58:14.125Z,19.80
2018-12-14T23:03:18.591Z,17.70
2018-12-14T23:08:23.141Z,30.07
2018-12-14T23:13:28.233Z,34.92
2018-12-14T23:18:32.815Z,29.97
2018-12-14T23:23:37.241Z,23.63
2018-12-14T23:28:41.815Z,18.25
2018-12-14T23:33:46.335Z,34.57
2018-12-14T23:38:50.795Z,32.57
2018-12-14T23:43:55.445Z,37.97
2018-12-14T23:48:59.967Z,28.87
2018-12-14T23:54:04.515Z,36.57
2018-12-14T23:59:08.879Z,30.57
